sensor_id;sensor_type;location;lat;lon;timestamp;temperature;humidity
10057;DHT22;5068;51.286;7.518;2023-11-19T00:01:01;8.70;74.30
10057;DHT22;5068;51.286;7.518;2023-11-19T00:02:38;8.70;74.30
10057;DHT22;5068;51.286;7.518;2023-11-19T00:04:10;8.80;74.40
10057;DHT22;5068;51.286;7.518;2023-11-19T00:05:43;8.80;74.30
10057;DHT22;5068;51.286;7.518;2023-11-19T00:07:17;8.80;74.30
10057;DHT22;5068;51.286;7.518;2023-11-19T00:08:52;8.80;74.20
10057;DHT22;5068;51.286;7.518;2023-11-19T00:10:25;8.80;74.30
10057;DHT22;5068;51.286;7.518;2023-11-19T00:12:00;8.80;74.40
10057;DHT22;5068;51.286;7.518;2023-11-19T00:13:33;8.80;74.40
10057;DHT22;5068;51.286;7.518;2023-11-19T00:15:07;8.80;74.30
10057;DHT22;5068;51.286;7.518;2023-11-19T00:16:43;8.90;74.50
10057;DHT22;5068;51.286;7.518;2023-11-19T00:18:16;8.90;74.40
10057;DHT22;5068;51.286;7.518;2023-11-19T00:19:48;8.90;74.40
10057;DHT22;5068;51.286;7.518;2023-11-19T00:21:23;8.90;74.50
10057;DHT22;5068;51.286;7.518;2023-11-19T00:22:55;8.90;74.40
10057;DHT22;5068;51.286;7.518;2023-11-19T00:24:29;8.90;74.50
10057;DHT22;5068;51.286;7.518;2023-11-19T00:26:01;8.90;74.50
10057;DHT22;5068;51.286;7.518;2023-11-19T00:27:38;8.90;74.50
10057;DHT22;5068;51.286;7.518;2023-11-19T00:29:10;9.00;74.70
10057;DHT22;5068;51.286;7.518;2023-11-19T00:30:46;9.00;74.70
10057;DHT22;5068;51.286;7.518;2023-11-19T00:32:18;9.00;74.60
10057;DHT22;5068;51.286;7.518;2023-11-19T00:33:52;9.00;74.60
10057;DHT22;5068;51.286;7.518;2023-11-19T00:35:24;9.10;74.70
10057;DHT22;5068;51.286;7.518;2023-11-19T00:36:58;9.00;74.50
10057;DHT22;5068;51.286;7.518;2023-11-19T00:38:30;9.00;74.30
10057;DHT22;5068;51.286;7.518;2023-11-19T00:40:05;9.00;74.50
10057;DHT22;5068;51.286;7.518;2023-11-19T00:41:38;9.10;74.70
10057;DHT22;5068;51.286;7.518;2023-11-19T00:43:13;9.10;74.70
10057;DHT22;5068;51.286;7.518;2023-11-19T00:44:45;9.10;74.70
10057;DHT22;5068;51.286;7.518;2023-11-19T00:46:21;9.10;74.80
10057;DHT22;5068;51.286;7.518;2023-11-19T00:47:54;9.10;74.80
10057;DHT22;5068;51.286;7.518;2023-11-19T00:49:28;9.10;74.70
10057;DHT22;5068;51.286;7.518;2023-11-19T00:51:00;9.10;74.80
10057;DHT22;5068;51.286;7.518;2023-11-19T00:52:34;9.20;74.90
10057;DHT22;5068;51.286;7.518;2023-11-19T00:54:07;9.10;74.80
10057;DHT22;5068;51.286;7.518;2023-11-19T00:55:40;9.20;75.00
10057;DHT22;5068;51.286;7.518;2023-11-19T00:57:15;9.20;75.00
10057;DHT22;5068;51.286;7.518;2023-11-19T00:58:50;9.20;75.00
10057;DHT22;5068;51.286;7.518;2023-11-19T01:00:22;9.20;75.00
10057;DHT22;5068;51.286;7.518;2023-11-19T01:01:56;9.30;75.10
10057;DHT22;5068;51.286;7.518;2023-11-19T01:03:28;9.30;75.10
10057;DHT22;5068;51.286;7.518;2023-11-19T01:05:01;9.30;75.10
10057;DHT22;5068;51.286;7.518;2023-11-19T01:06:34;9.30;75.20
10057;DHT22;5068;51.286;7.518;2023-11-19T01:08:20;9.30;75.20
10057;DHT22;5068;51.286;7.518;2023-11-19T01:09:53;9.30;75.20
10057;DHT22;5068;51.286;7.518;2023-11-19T01:11:26;9.40;75.30
10057;DHT22;5068;51.286;7.518;2023-11-19T01:12:59;9.40;75.20
10057;DHT22;5068;51.286;7.518;2023-11-19T01:14:33;9.40;75.20
10057;DHT22;5068;51.286;7.518;2023-11-19T01:16:07;9.40;75.20
10057;DHT22;5068;51.286;7.518;2023-11-19T01:17:41;9.40;75.20
10057;DHT22;5068;51.286;7.518;2023-11-19T01:19:24;9.40;75.00
10057;DHT22;5068;51.286;7.518;2023-11-19T01:20:56;9.50;75.00
10057;DHT22;5068;51.286;7.518;2023-11-19T01:22:30;9.50;74.90
10057;DHT22;5068;51.286;7.518;2023-11-19T01:24:02;9.50;74.80
10057;DHT22;5068;51.286;7.518;2023-11-19T01:25:38;9.50;74.70
10057;DHT22;5068;51.286;7.518;2023-11-19T01:27:11;9.50;74.60
10057;DHT22;5068;51.286;7.518;2023-11-19T01:28:43;9.50;74.50
10057;DHT22;5068;51.286;7.518;2023-11-19T01:30:22;9.50;74.50
10057;DHT22;5068;51.286;7.518;2023-11-19T01:31:56;9.50;74.50
10057;DHT22;5068;51.286;7.518;2023-11-19T01:33:28;9.60;74.90
10057;DHT22;5068;51.286;7.518;2023-11-19T01:35:01;9.60;74.60
10057;DHT22;5068;51.286;7.518;2023-11-19T01:36:34;9.60;74.60
10057;DHT22;5068;51.286;7.518;2023-11-19T01:38:08;9.60;74.60
10057;DHT22;5068;51.286;7.518;2023-11-19T01:39:41;9.60;74.60
10057;DHT22;5068;51.286;7.518;2023-11-19T01:41:16;9.60;74.60
10057;DHT22;5068;51.286;7.518;2023-11-19T01:42:50;9.60;74.50
10057;DHT22;5068;51.286;7.518;2023-11-19T01:44:22;9.60;74.50
10057;DHT22;5068;51.286;7.518;2023-11-19T01:45:57;9.60;74.60
10057;DHT22;5068;51.286;7.518;2023-11-19T01:47:30;9.60;74.60
10057;DHT22;5068;51.286;7.518;2023-11-19T01:49:05;9.60;74.60
10057;DHT22;5068;51.286;7.518;2023-11-19T01:50:37;9.60;74.60
10057;DHT22;5068;51.286;7.518;2023-11-19T01:52:11;9.60;74.60
10057;DHT22;5068;51.286;7.518;2023-11-19T01:53:45;9.60;74.90
10057;DHT22;5068;51.286;7.518;2023-11-19T01:55:18;9.60;74.60
10057;DHT22;5068;51.286;7.518;2023-11-19T01:56:52;9.60;74.60
10057;DHT22;5068;51.286;7.518;2023-11-19T01:58:28;9.70;74.70
10057;DHT22;5068;51.286;7.518;2023-11-19T02:00:02;9.60;74.50
10057;DHT22;5068;51.286;7.518;2023-11-19T02:01:45;9.60;74.40
10057;DHT22;5068;51.286;7.518;2023-11-19T02:03:19;9.60;74.30
10057;DHT22;5068;51.286;7.518;2023-11-19T02:04:53;9.70;74.70
10057;DHT22;5068;51.286;7.518;2023-11-19T02:06:27;9.70;74.40
10057;DHT22;5068;51.286;7.518;2023-11-19T02:08:01;9.60;74.20
10057;DHT22;5068;51.286;7.518;2023-11-19T02:09:34;9.60;74.20
10057;DHT22;5068;51.286;7.518;2023-11-19T02:11:07;9.70;74.20
10057;DHT22;5068;51.286;7.518;2023-11-19T02:12:40;9.70;74.30
10057;DHT22;5068;51.286;7.518;2023-11-19T02:14:15;9.60;74.40
10057;DHT22;5068;51.286;7.518;2023-11-19T02:15:48;9.70;74.60
10057;DHT22;5068;51.286;7.518;2023-11-19T02:17:28;9.60;74.60
10057;DHT22;5068;51.286;7.518;2023-11-19T02:19:01;9.60;74.90
10057;DHT22;5068;51.286;7.518;2023-11-19T02:20:35;9.60;74.90
10057;DHT22;5068;51.286;7.518;2023-11-19T02:22:08;9.70;75.40
10057;DHT22;5068;51.286;7.518;2023-11-19T02:23:41;9.70;75.00
10057;DHT22;5068;51.286;7.518;2023-11-19T02:25:19;9.70;75.00
10057;DHT22;5068;51.286;7.518;2023-11-19T02:26:59;9.70;75.10
10057;DHT22;5068;51.286;7.518;2023-11-19T02:28:39;9.70;75.10
10057;DHT22;5068;51.286;7.518;2023-11-19T02:30:12;9.70;75.10
10057;DHT22;5068;51.286;7.518;2023-11-19T02:31:46;9.70;75.00
10057;DHT22;5068;51.286;7.518;2023-11-19T02:33:19;9.70;75.20
10057;DHT22;5068;51.286;7.518;2023-11-19T02:34:52;9.70;75.40
10057;DHT22;5068;51.286;7.518;2023-11-19T02:36:39;9.80;75.70
10057;DHT22;5068;51.286;7.518;2023-11-19T02:38:13;9.80;76.10
10057;DHT22;5068;51.286;7.518;2023-11-19T02:39:47;9.80;76.20
10057;DHT22;5068;51.286;7.518;2023-11-19T02:41:19;9.80;76.40
10057;DHT22;5068;51.286;7.518;2023-11-19T02:42:53;9.80;76.50
10057;DHT22;5068;51.286;7.518;2023-11-19T02:44:30;9.90;76.90
10057;DHT22;5068;51.286;7.518;2023-11-19T02:46:04;9.90;76.90
10057;DHT22;5068;51.286;7.518;2023-11-19T02:47:47;9.90;77.10
10057;DHT22;5068;51.286;7.518;2023-11-19T02:49:21;10.00;77.20
10057;DHT22;5068;51.286;7.518;2023-11-19T02:50:53;10.00;77.40
10057;DHT22;5068;51.286;7.518;2023-11-19T02:52:30;10.10;77.60
10057;DHT22;5068;51.286;7.518;2023-11-19T02:54:06;10.10;77.70
10057;DHT22;5068;51.286;7.518;2023-11-19T02:55:40;10.10;77.70
10057;DHT22;5068;51.286;7.518;2023-11-19T02:57:13;10.20;77.80
10057;DHT22;5068;51.286;7.518;2023-11-19T02:58:49;10.20;77.70
10057;DHT22;5068;51.286;7.518;2023-11-19T03:00:23;10.30;77.70
10057;DHT22;5068;51.286;7.518;2023-11-19T03:02:03;10.20;77.70
10057;DHT22;5068;51.286;7.518;2023-11-19T03:03:36;10.30;77.70
10057;DHT22;5068;51.286;7.518;2023-11-19T03:05:13;10.30;77.70
10057;DHT22;5068;51.286;7.518;2023-11-19T03:06:46;10.40;77.80
10057;DHT22;5068;51.286;7.518;2023-11-19T03:08:20;10.40;77.70
10057;DHT22;5068;51.286;7.518;2023-11-19T03:09:54;10.40;77.70
10057;DHT22;5068;51.286;7.518;2023-11-19T03:11:28;10.40;77.60
10057;DHT22;5068;51.286;7.518;2023-11-19T03:13:01;10.50;77.70
10057;DHT22;5068;51.286;7.518;2023-11-19T03:14:34;10.50;77.60
10057;DHT22;5068;51.286;7.518;2023-11-19T03:16:09;10.50;77.50
10057;DHT22;5068;51.286;7.518;2023-11-19T03:17:43;10.60;77.50
10057;DHT22;5068;51.286;7.518;2023-11-19T03:19:16;10.60;77.50
10057;DHT22;5068;51.286;7.518;2023-11-19T03:20:57;10.60;77.30
10057;DHT22;5068;51.286;7.518;2023-11-19T03:22:30;10.70;77.40
10057;DHT22;5068;51.286;7.518;2023-11-19T03:24:03;10.70;77.40
10057;DHT22;5068;51.286;7.518;2023-11-19T03:25:37;10.70;78.30
10057;DHT22;5068;51.286;7.518;2023-11-19T03:27:09;10.70;77.40
10057;DHT22;5068;51.286;7.518;2023-11-19T03:28:43;10.80;77.40
10057;DHT22;5068;51.286;7.518;2023-11-19T03:30:16;10.80;77.30
10057;DHT22;5068;51.286;7.518;2023-11-19T03:31:51;10.80;77.30
10057;DHT22;5068;51.286;7.518;2023-11-19T03:33:23;10.90;77.40
10057;DHT22;5068;51.286;7.518;2023-11-19T03:34:57;10.80;77.10
10057;DHT22;5068;51.286;7.518;2023-11-19T03:36:32;10.90;77.20
10057;DHT22;5068;51.286;7.518;2023-11-19T03:38:05;10.90;77.10
10057;DHT22;5068;51.286;7.518;2023-11-19T03:39:39;10.90;77.00
10057;DHT22;5068;51.286;7.518;2023-11-19T03:41:11;11.00;77.00
10057;DHT22;5068;51.286;7.518;2023-11-19T03:42:45;11.00;76.90
10057;DHT22;5068;51.286;7.518;2023-11-19T03:44:17;11.00;76.90
10057;DHT22;5068;51.286;7.518;2023-11-19T03:45:51;11.00;76.70
10057;DHT22;5068;51.286;7.518;2023-11-19T03:47:26;11.10;76.70
10057;DHT22;5068;51.286;7.518;2023-11-19T03:48:58;11.10;76.60
10057;DHT22;5068;51.286;7.518;2023-11-19T03:50:31;11.10;76.40
10057;DHT22;5068;51.286;7.518;2023-11-19T03:52:04;11.10;76.20
10057;DHT22;5068;51.286;7.518;2023-11-19T03:53:50;11.10;76.20
10057;DHT22;5068;51.286;7.518;2023-11-19T03:55:24;11.10;76.10
10057;DHT22;5068;51.286;7.518;2023-11-19T03:56:56;11.20;76.00
10057;DHT22;5068;51.286;7.518;2023-11-19T03:58:29;11.20;75.80
10057;DHT22;5068;51.286;7.518;2023-11-19T04:00:02;11.20;75.70
10057;DHT22;5068;51.286;7.518;2023-11-19T04:01:43;11.20;75.80
10057;DHT22;5068;51.286;7.518;2023-11-19T04:03:17;11.30;75.70
10057;DHT22;5068;51.286;7.518;2023-11-19T04:04:51;11.30;75.60
10057;DHT22;5068;51.286;7.518;2023-11-19T04:06:23;11.30;75.50
10057;DHT22;5068;51.286;7.518;2023-11-19T04:07:56;11.30;75.50
10057;DHT22;5068;51.286;7.518;2023-11-19T04:09:30;11.30;75.30
10057;DHT22;5068;51.286;7.518;2023-11-19T04:11:03;11.30;75.30
10057;DHT22;5068;51.286;7.518;2023-11-19T04:12:37;11.30;75.20
10057;DHT22;5068;51.286;7.518;2023-11-19T04:14:09;11.30;75.00
10057;DHT22;5068;51.286;7.518;2023-11-19T04:15:42;11.30;75.00
10057;DHT22;5068;51.286;7.518;2023-11-19T04:17:15;11.40;75.00
10057;DHT22;5068;51.286;7.518;2023-11-19T04:18:49;11.40;74.80
10057;DHT22;5068;51.286;7.518;2023-11-19T04:20:22;11.40;74.80
10057;DHT22;5068;51.286;7.518;2023-11-19T04:21:55;11.40;74.70
10057;DHT22;5068;51.286;7.518;2023-11-19T04:23:28;11.40;74.50
10057;DHT22;5068;51.286;7.518;2023-11-19T04:25:01;11.40;74.40
10057;DHT22;5068;51.286;7.518;2023-11-19T04:26:34;11.40;74.30
10057;DHT22;5068;51.286;7.518;2023-11-19T04:28:08;11.40;74.10
10057;DHT22;5068;51.286;7.518;2023-11-19T04:29:41;11.50;74.10
10057;DHT22;5068;51.286;7.518;2023-11-19T04:31:14;11.40;73.90
10057;DHT22;5068;51.286;7.518;2023-11-19T04:32:47;11.50;73.80
10057;DHT22;5068;51.286;7.518;2023-11-19T04:34:22;11.50;73.60
10057;DHT22;5068;51.286;7.518;2023-11-19T04:35:55;11.50;73.50
10057;DHT22;5068;51.286;7.518;2023-11-19T04:37:28;11.50;73.50
10057;DHT22;5068;51.286;7.518;2023-11-19T04:39:02;11.50;73.50
10057;DHT22;5068;51.286;7.518;2023-11-19T04:40:34;11.50;73.30
10057;DHT22;5068;51.286;7.518;2023-11-19T04:42:08;11.50;73.00
10057;DHT22;5068;51.286;7.518;2023-11-19T04:43:40;11.50;73.00
10057;DHT22;5068;51.286;7.518;2023-11-19T04:45:13;11.50;72.80
10057;DHT22;5068;51.286;7.518;2023-11-19T04:46:48;11.50;72.70
10057;DHT22;5068;51.286;7.518;2023-11-19T04:48:21;11.50;72.50
10057;DHT22;5068;51.286;7.518;2023-11-19T04:49:55;11.50;72.50
10057;DHT22;5068;51.286;7.518;2023-11-19T04:51:29;11.50;72.50
10057;DHT22;5068;51.286;7.518;2023-11-19T04:53:01;11.50;72.40
10057;DHT22;5068;51.286;7.518;2023-11-19T04:54:35;11.50;72.20
10057;DHT22;5068;51.286;7.518;2023-11-19T04:56:08;11.50;72.20
10057;DHT22;5068;51.286;7.518;2023-11-19T04:57:42;11.50;72.10
10057;DHT22;5068;51.286;7.518;2023-11-19T04:59:15;11.50;71.90
10057;DHT22;5068;51.286;7.518;2023-11-19T05:00:48;11.50;71.90
10057;DHT22;5068;51.286;7.518;2023-11-19T05:02:21;11.50;71.80
10057;DHT22;5068;51.286;7.518;2023-11-19T05:03:53;11.50;71.70
10057;DHT22;5068;51.286;7.518;2023-11-19T05:05:28;11.50;71.70
10057;DHT22;5068;51.286;7.518;2023-11-19T05:07:01;11.50;71.50
10057;DHT22;5068;51.286;7.518;2023-11-19T05:08:35;11.50;71.50
10057;DHT22;5068;51.286;7.518;2023-11-19T05:10:08;11.60;72.30
10057;DHT22;5068;51.286;7.518;2023-11-19T05:11:42;11.50;71.30
10057;DHT22;5068;51.286;7.518;2023-11-19T05:13:18;11.50;71.30
10057;DHT22;5068;51.286;7.518;2023-11-19T05:14:51;11.50;71.30
10057;DHT22;5068;51.286;7.518;2023-11-19T05:16:23;11.50;71.30
10057;DHT22;5068;51.286;7.518;2023-11-19T05:17:56;11.50;71.20
10057;DHT22;5068;51.286;7.518;2023-11-19T05:19:30;11.50;71.10
10057;DHT22;5068;51.286;7.518;2023-11-19T05:21:04;11.50;71.00
10057;DHT22;5068;51.286;7.518;2023-11-19T05:22:39;11.50;71.00
10057;DHT22;5068;51.286;7.518;2023-11-19T05:24:11;11.50;71.00
10057;DHT22;5068;51.286;7.518;2023-11-19T05:25:44;11.50;71.00
10057;DHT22;5068;51.286;7.518;2023-11-19T05:27:17;11.50;71.00
10057;DHT22;5068;51.286;7.518;2023-11-19T05:28:50;11.50;71.00
10057;DHT22;5068;51.286;7.518;2023-11-19T05:30:23;11.50;71.00
10057;DHT22;5068;51.286;7.518;2023-11-19T05:31:56;11.50;71.00
10057;DHT22;5068;51.286;7.518;2023-11-19T05:33:29;11.50;70.90
10057;DHT22;5068;51.286;7.518;2023-11-19T05:35:02;11.50;70.80
10057;DHT22;5068;51.286;7.518;2023-11-19T05:36:37;11.50;70.70
10057;DHT22;5068;51.286;7.518;2023-11-19T05:38:11;11.50;70.50
10057;DHT22;5068;51.286;7.518;2023-11-19T05:39:45;11.50;70.50
10057;DHT22;5068;51.286;7.518;2023-11-19T05:41:18;11.50;70.50
10057;DHT22;5068;51.286;7.518;2023-11-19T05:42:50;11.50;70.40
10057;DHT22;5068;51.286;7.518;2023-11-19T05:44:23;11.50;70.30
10057;DHT22;5068;51.286;7.518;2023-11-19T05:45:56;11.50;70.30
10057;DHT22;5068;51.286;7.518;2023-11-19T05:47:29;11.40;70.20
10057;DHT22;5068;51.286;7.518;2023-11-19T05:49:02;11.50;70.20
10057;DHT22;5068;51.286;7.518;2023-11-19T05:50:35;11.50;70.20
10057;DHT22;5068;51.286;7.518;2023-11-19T05:52:08;11.40;70.00
10057;DHT22;5068;51.286;7.518;2023-11-19T05:53:43;11.40;69.90
10057;DHT22;5068;51.286;7.518;2023-11-19T05:55:17;11.40;69.80
10057;DHT22;5068;51.286;7.518;2023-11-19T05:56:51;11.40;69.70
10057;DHT22;5068;51.286;7.518;2023-11-19T05:58:26;11.40;69.70
10057;DHT22;5068;51.286;7.518;2023-11-19T06:00:01;11.40;69.60
10057;DHT22;5068;51.286;7.518;2023-11-19T06:01:42;11.40;69.50
10057;DHT22;5068;51.286;7.518;2023-11-19T06:03:15;11.40;69.60
10057;DHT22;5068;51.286;7.518;2023-11-19T06:04:48;11.40;69.40
10057;DHT22;5068;51.286;7.518;2023-11-19T06:06:21;11.40;69.20
10057;DHT22;5068;51.286;7.518;2023-11-19T06:07:55;11.40;69.10
10057;DHT22;5068;51.286;7.518;2023-11-19T06:09:29;11.40;69.00
10057;DHT22;5068;51.286;7.518;2023-11-19T06:11:01;11.40;69.00
10057;DHT22;5068;51.286;7.518;2023-11-19T06:12:35;11.40;69.00
10057;DHT22;5068;51.286;7.518;2023-11-19T06:14:10;11.40;68.90
10057;DHT22;5068;51.286;7.518;2023-11-19T06:15:43;11.30;68.40
10057;DHT22;5068;51.286;7.518;2023-11-19T06:17:16;11.40;68.90
10057;DHT22;5068;51.286;7.518;2023-11-19T06:18:49;11.30;68.70
10057;DHT22;5068;51.286;7.518;2023-11-19T06:20:21;11.40;68.80
10057;DHT22;5068;51.286;7.518;2023-11-19T06:21:55;11.30;68.60
10057;DHT22;5068;51.286;7.518;2023-11-19T06:23:28;11.40;68.50
10057;DHT22;5068;51.286;7.518;2023-11-19T06:25:02;11.30;68.30
10057;DHT22;5068;51.286;7.518;2023-11-19T06:26:39;11.30;68.40
10057;DHT22;5068;51.286;7.518;2023-11-19T06:28:12;11.30;68.20
10057;DHT22;5068;51.286;7.518;2023-11-19T06:29:45;11.30;68.20
10057;DHT22;5068;51.286;7.518;2023-11-19T06:31:18;11.30;68.20
10057;DHT22;5068;51.286;7.518;2023-11-19T06:32:51;11.30;68.10
10057;DHT22;5068;51.286;7.518;2023-11-19T06:34:24;11.30;68.10
10057;DHT22;5068;51.286;7.518;2023-11-19T06:35:57;11.30;68.20
10057;DHT22;5068;51.286;7.518;2023-11-19T06:37:41;11.30;68.10
10057;DHT22;5068;51.286;7.518;2023-11-19T06:39:20;11.30;68.20
10057;DHT22;5068;51.286;7.518;2023-11-19T06:40:54;11.40;68.10
10057;DHT22;5068;51.286;7.518;2023-11-19T06:42:26;11.40;68.00
10057;DHT22;5068;51.286;7.518;2023-11-19T06:43:59;11.30;67.80
10057;DHT22;5068;51.286;7.518;2023-11-19T06:45:32;11.30;67.70
10057;DHT22;5068;51.286;7.518;2023-11-19T06:47:05;11.30;67.40
10057;DHT22;5068;51.286;7.518;2023-11-19T06:48:38;11.30;67.40
10057;DHT22;5068;51.286;7.518;2023-11-19T06:50:11;11.30;67.10
10057;DHT22;5068;51.286;7.518;2023-11-19T06:51:44;11.30;67.20
10057;DHT22;5068;51.286;7.518;2023-11-19T06:53:18;11.30;67.00
10057;DHT22;5068;51.286;7.518;2023-11-19T06:54:52;11.30;66.90
10057;DHT22;5068;51.286;7.518;2023-11-19T06:56:39;11.30;66.70
10057;DHT22;5068;51.286;7.518;2023-11-19T06:58:13;11.30;66.70
10057;DHT22;5068;51.286;7.518;2023-11-19T06:59:45;11.30;66.60
10057;DHT22;5068;51.286;7.518;2023-11-19T07:01:19;11.20;66.40
10057;DHT22;5068;51.286;7.518;2023-11-19T07:02:51;11.20;66.40
10057;DHT22;5068;51.286;7.518;2023-11-19T07:04:25;11.30;66.50
10057;DHT22;5068;51.286;7.518;2023-11-19T07:05:57;11.20;66.40
10057;DHT22;5068;51.286;7.518;2023-11-19T07:07:31;11.20;66.50
10057;DHT22;5068;51.286;7.518;2023-11-19T07:09:04;11.20;66.50
10057;DHT22;5068;51.286;7.518;2023-11-19T07:10:42;11.20;66.60
10057;DHT22;5068;51.286;7.518;2023-11-19T07:12:15;11.20;66.50
10057;DHT22;5068;51.286;7.518;2023-11-19T07:13:48;11.20;66.60
10057;DHT22;5068;51.286;7.518;2023-11-19T07:15:22;11.20;66.60
10057;DHT22;5068;51.286;7.518;2023-11-19T07:16:55;11.20;66.50
10057;DHT22;5068;51.286;7.518;2023-11-19T07:18:27;11.20;66.40
10057;DHT22;5068;51.286;7.518;2023-11-19T07:20:01;11.20;66.20
10057;DHT22;5068;51.286;7.518;2023-11-19T07:21:34;11.20;66.10
10057;DHT22;5068;51.286;7.518;2023-11-19T07:23:11;11.20;66.20
10057;DHT22;5068;51.286;7.518;2023-11-19T07:24:44;11.20;66.30
10057;DHT22;5068;51.286;7.518;2023-11-19T07:26:19;11.20;66.10
10057;DHT22;5068;51.286;7.518;2023-11-19T07:27:51;11.20;66.00
10057;DHT22;5068;51.286;7.518;2023-11-19T07:29:25;11.20;66.00
10057;DHT22;5068;51.286;7.518;2023-11-19T07:31:01;11.10;66.00
10057;DHT22;5068;51.286;7.518;2023-11-19T07:32:34;11.20;66.10
10057;DHT22;5068;51.286;7.518;2023-11-19T07:34:06;11.10;66.00
10057;DHT22;5068;51.286;7.518;2023-11-19T07:35:42;11.10;65.90
10057;DHT22;5068;51.286;7.518;2023-11-19T07:37:14;11.10;66.00
10057;DHT22;5068;51.286;7.518;2023-11-19T07:38:48;11.10;66.00
10057;DHT22;5068;51.286;7.518;2023-11-19T07:40:22;11.10;66.00
10057;DHT22;5068;51.286;7.518;2023-11-19T07:41:58;11.10;66.00
10057;DHT22;5068;51.286;7.518;2023-11-19T07:43:30;11.10;66.00
10057;DHT22;5068;51.286;7.518;2023-11-19T07:45:05;11.10;66.10
10057;DHT22;5068;51.286;7.518;2023-11-19T07:46:38;11.10;66.40
10057;DHT22;5068;51.286;7.518;2023-11-19T07:48:14;11.10;66.40
10057;DHT22;5068;51.286;7.518;2023-11-19T07:49:47;11.10;66.40
10057;DHT22;5068;51.286;7.518;2023-11-19T07:51:20;11.10;66.20
10057;DHT22;5068;51.286;7.518;2023-11-19T07:52:53;11.10;66.10
10057;DHT22;5068;51.286;7.518;2023-11-19T07:54:26;11.10;66.00
10057;DHT22;5068;51.286;7.518;2023-11-19T07:55:59;11.10;66.00
10057;DHT22;5068;51.286;7.518;2023-11-19T07:57:34;11.10;66.00
10057;DHT22;5068;51.286;7.518;2023-11-19T07:59:07;11.10;65.90
10057;DHT22;5068;51.286;7.518;2023-11-19T08:00:40;11.00;65.60
10057;DHT22;5068;51.286;7.518;2023-11-19T08:02:13;11.10;66.10
10057;DHT22;5068;51.286;7.518;2023-11-19T08:03:46;11.00;65.80
10057;DHT22;5068;51.286;7.518;2023-11-19T08:05:22;11.00;65.90
10057;DHT22;5068;51.286;7.518;2023-11-19T08:06:56;11.00;65.90
10057;DHT22;5068;51.286;7.518;2023-11-19T08:08:29;11.10;65.90
10057;DHT22;5068;51.286;7.518;2023-11-19T08:10:05;11.10;65.90
10057;DHT22;5068;51.286;7.518;2023-11-19T08:11:42;11.10;65.90
10057;DHT22;5068;51.286;7.518;2023-11-19T08:13:16;11.00;65.70
10057;DHT22;5068;51.286;7.518;2023-11-19T08:14:52;11.00;65.80
10057;DHT22;5068;51.286;7.518;2023-11-19T08:16:25;11.00;65.70
10057;DHT22;5068;51.286;7.518;2023-11-19T08:17:58;11.00;65.80
10057;DHT22;5068;51.286;7.518;2023-11-19T08:19:31;11.00;65.80
10057;DHT22;5068;51.286;7.518;2023-11-19T08:21:05;11.00;65.70
10057;DHT22;5068;51.286;7.518;2023-11-19T08:22:37;11.00;65.70
10057;DHT22;5068;51.286;7.518;2023-11-19T08:24:10;11.00;65.60
10057;DHT22;5068;51.286;7.518;2023-11-19T08:25:43;11.00;65.60
10057;DHT22;5068;51.286;7.518;2023-11-19T08:27:16;11.00;65.60
10057;DHT22;5068;51.286;7.518;2023-11-19T08:28:50;11.00;65.50
10057;DHT22;5068;51.286;7.518;2023-11-19T08:30:24;11.00;65.50
10057;DHT22;5068;51.286;7.518;2023-11-19T08:31:57;11.00;65.40
10057;DHT22;5068;51.286;7.518;2023-11-19T08:33:33;11.10;66.40
10057;DHT22;5068;51.286;7.518;2023-11-19T08:35:06;11.00;65.40
10057;DHT22;5068;51.286;7.518;2023-11-19T08:36:39;11.10;65.70
10057;DHT22;5068;51.286;7.518;2023-11-19T08:38:12;11.10;65.60
10057;DHT22;5068;51.286;7.518;2023-11-19T08:39:45;11.00;65.50
10057;DHT22;5068;51.286;7.518;2023-11-19T08:41:18;11.00;65.60
10057;DHT22;5068;51.286;7.518;2023-11-19T08:42:51;11.10;65.80
10057;DHT22;5068;51.286;7.518;2023-11-19T08:44:26;11.10;65.80
10057;DHT22;5068;51.286;7.518;2023-11-19T08:45:58;11.10;65.70
10057;DHT22;5068;51.286;7.518;2023-11-19T08:47:31;11.10;65.80
10057;DHT22;5068;51.286;7.518;2023-11-19T08:49:04;11.10;65.90
10057;DHT22;5068;51.286;7.518;2023-11-19T08:50:37;11.10;65.90
10057;DHT22;5068;51.286;7.518;2023-11-19T08:52:11;11.10;65.90
10057;DHT22;5068;51.286;7.518;2023-11-19T08:53:43;11.10;65.90
10057;DHT22;5068;51.286;7.518;2023-11-19T08:55:17;11.10;65.80
10057;DHT22;5068;51.286;7.518;2023-11-19T08:56:49;11.10;65.90
10057;DHT22;5068;51.286;7.518;2023-11-19T08:58:22;11.10;65.70
10057;DHT22;5068;51.286;7.518;2023-11-19T08:59:56;11.10;65.60
10057;DHT22;5068;51.286;7.518;2023-11-19T09:01:29;11.10;65.50
10057;DHT22;5068;51.286;7.518;2023-11-19T09:03:02;11.10;65.60
10057;DHT22;5068;51.286;7.518;2023-11-19T09:04:36;11.20;65.80
10057;DHT22;5068;51.286;7.518;2023-11-19T09:06:09;11.20;65.70
10057;DHT22;5068;51.286;7.518;2023-11-19T09:07:42;11.20;65.80
10057;DHT22;5068;51.286;7.518;2023-11-19T09:09:14;11.20;65.80
10057;DHT22;5068;51.286;7.518;2023-11-19T09:10:48;11.20;65.70
10057;DHT22;5068;51.286;7.518;2023-11-19T09:12:20;11.20;65.60
10057;DHT22;5068;51.286;7.518;2023-11-19T09:13:54;11.30;65.60
10057;DHT22;5068;51.286;7.518;2023-11-19T09:15:28;11.20;65.40
10057;DHT22;5068;51.286;7.518;2023-11-19T09:17:01;11.30;65.30
10057;DHT22;5068;51.286;7.518;2023-11-19T09:18:33;11.30;65.40
10057;DHT22;5068;51.286;7.518;2023-11-19T09:20:08;11.30;65.40
10057;DHT22;5068;51.286;7.518;2023-11-19T09:21:44;11.30;65.30
10057;DHT22;5068;51.286;7.518;2023-11-19T09:23:17;11.30;65.20
10057;DHT22;5068;51.286;7.518;2023-11-19T09:24:50;11.30;65.10
10057;DHT22;5068;51.286;7.518;2023-11-19T09:26:24;11.40;65.80
10057;DHT22;5068;51.286;7.518;2023-11-19T09:27:56;11.40;65.00
10057;DHT22;5068;51.286;7.518;2023-11-19T09:29:31;11.40;65.00
10057;DHT22;5068;51.286;7.518;2023-11-19T09:31:13;11.40;64.80
10057;DHT22;5068;51.286;7.518;2023-11-19T09:32:47;11.40;64.60
10057;DHT22;5068;51.286;7.518;2023-11-19T09:34:20;11.40;64.90
10057;DHT22;5068;51.286;7.518;2023-11-19T09:35:53;11.40;65.70
10057;DHT22;5068;51.286;7.518;2023-11-19T09:37:26;11.50;64.70
10057;DHT22;5068;51.286;7.518;2023-11-19T09:38:59;11.50;64.80
10057;DHT22;5068;51.286;7.518;2023-11-19T09:40:33;11.50;64.80
10057;DHT22;5068;51.286;7.518;2023-11-19T09:42:06;11.50;64.80
10057;DHT22;5068;51.286;7.518;2023-11-19T09:43:39;11.50;64.60
10057;DHT22;5068;51.286;7.518;2023-11-19T09:45:14;11.50;64.40
10057;DHT22;5068;51.286;7.518;2023-11-19T09:46:48;11.50;64.40
10057;DHT22;5068;51.286;7.518;2023-11-19T09:48:22;11.50;64.40
10057;DHT22;5068;51.286;7.518;2023-11-19T09:49:57;11.50;64.30
10057;DHT22;5068;51.286;7.518;2023-11-19T09:51:30;11.50;64.50
10057;DHT22;5068;51.286;7.518;2023-11-19T09:53:03;11.50;64.30
10057;DHT22;5068;51.286;7.518;2023-11-19T09:54:37;11.60;64.50
10057;DHT22;5068;51.286;7.518;2023-11-19T09:56:11;11.60;64.40
10057;DHT22;5068;51.286;7.518;2023-11-19T09:57:47;11.50;64.30
10057;DHT22;5068;51.286;7.518;2023-11-19T09:59:23;11.60;64.50
10057;DHT22;5068;51.286;7.518;2023-11-19T10:00:57;11.60;64.40
10057;DHT22;5068;51.286;7.518;2023-11-19T10:02:52;11.60;65.30
10057;DHT22;5068;51.286;7.518;2023-11-19T10:04:29;11.60;64.50
10057;DHT22;5068;51.286;7.518;2023-11-19T10:06:03;11.60;64.40